Time;durP1;ratioP1;P1;durP2;ratioP2;P2;SDS_P1;SDS_P2;PMS_P1;PMS_P2;Temp;Humidity;BMP_temperature;BMP_pressure;BME280_temperature;BME280_humidity;BME280_pressure;Samples;Min_cycle;Max_cycle;Signal;HPM_P1;HPM_P2
2021/06/12 00:00:57;;;;;;;;;;;;;;;;;;4992565;28;19922;-92
2021/06/12 00:03:25;;;;;;;;;;;;;;;;;;4992816;28;19929;-92
2021/06/12 00:05:54;;;;;;;;;;;;;;;;;;4979032;28;19925;-92
2021/06/12 00:08:21;;;;;;;;;;;;;;;;;;4979459;28;20026;-91
2021/06/12 00:10:49;;;;;;;;;;;;;;;;;;4978860;28;19921;-91
2021/06/12 00:13:17;;;;;;;;;;;;;;;;;;4996266;28;20058;-91
2021/06/12 00:15:45;;;;;;;;;;;;;;;;;;4995524;28;20280;-91
2021/06/12 00:18:13;;;;;;;;;;;;;;;;;;4978955;28;19922;-91
2021/06/12 00:20:41;;;;;;;;;;;;;;;;;;4977591;28;19928;-91
2021/06/12 00:23:10;;;;;;;;;;;;;;;;;;4991839;28;19929;-91
2021/06/12 00:25:38;;;;;;;;;;;;;;;;;;4992395;28;19922;-91
2021/06/12 00:28:06;;;;;;;;;;;;;;;;;;4984022;28;19922;-92
2021/06/12 00:30:35;;;;;;;;;;;;;;;;;;4983036;28;19926;-91
2021/06/12 00:33:15;;;;;;;;;;;;;;;;;;4999463;28;20301;-92
2021/06/12 00:35:43;;;;;;;;;;;;;;;;;;4999547;28;19929;-91
2021/06/12 00:38:13;;;;;;;;;;;;;;;;;;4978419;28;19929;-91
2021/06/12 00:40:41;;;;;;;;;;;;;;;;;;5000106;28;19921;-91
2021/06/12 00:43:09;;;;;;;;;;;;;;;;;;4971471;28;19937;-92
2021/06/12 00:45:37;;;;;;;;;;;;;;;;;;4990435;28;19989;-92
2021/06/12 00:48:05;;;;;;;;;;;;;;;;;;4988459;28;19932;-92
2021/06/12 00:50:33;;;;;;;;;;;;;;;;;;4984841;28;19925;-92
2021/06/12 00:53:02;;;;;;;;;;;;;;;;;;5004441;28;20002;-92
2021/06/12 00:55:32;;;;;;;;;;;;;;;;;;5004268;28;19921;-92
2021/06/12 00:58:00;;;;;;;;;;;;;;;;;;4996899;28;19937;-92
2021/06/12 01:00:27;;;;;;;;;;;;;;;;;;4990924;28;19921;-93
2021/06/12 01:02:55;;;;;;;;;;;;;;;;;;4988585;28;19921;-92
2021/06/12 01:05:23;;;;;;;;;;;;;;;;;;4982181;28;19922;-93
2021/06/12 01:07:51;;;;;;;;;;;;;;;;;;4989772;28;19932;-93
2021/06/12 01:10:20;;;;;;;;;;;;;;;;;;4992832;28;19921;-93
2021/06/12 01:12:59;;;;;;;;;;;;;;;;;;5000825;28;19928;-92
2021/06/12 01:15:27;;;;;;;;;;;;;;;;;;4985160;28;20005;-93
2021/06/12 01:17:56;;;;;;;;;;;;;;;;;;4991557;28;19953;-93
2021/06/12 01:20:35;;;;;;;;;;;;;;;;;;4986043;28;19922;-93
2021/06/12 01:23:06;;;;;;;;;;;;;;;;;;5004260;28;19922;-93
2021/06/12 01:25:42;;;;;;;;;;;;;;;;;;4998982;28;19937;-92
2021/06/12 01:28:31;;;;;;;;;;;;;;;;;;4986935;28;19929;-93
2021/06/12 01:31:01;;;;;;;;;;;;;;;;;;4971163;28;19929;-91
2021/06/12 01:33:29;;;;;;;;;;;;;;;;;;4978084;28;19945;-93
2021/06/12 01:35:57;;;;;;;;;;;;;;;;;;4981717;28;20310;-91
2021/06/12 01:38:25;;;;;;;;;;;;;;;;;;4978518;28;19933;-92
2021/06/12 01:40:54;;;;;;;;;;;;;;;;;;4981115;28;19933;-92
2021/06/12 01:43:22;;;;;;;;;;;;;;;;;;4985071;28;19922;-93
2021/06/12 01:45:50;;;;;;;;;;;;;;;;;;4978192;28;19933;-92
2021/06/12 01:48:19;;;;;;;;;;;;;;;;;;5017079;28;19928;-92
2021/06/12 01:50:47;;;;;;;;;;;;;;;;;;4996033;28;19944;-93
2021/06/12 01:53:16;;;;;;;;;;;;;;;;;;4977442;28;19926;-94
2021/06/12 01:55:44;;;;;;;;;;;;;;;;;;4983805;28;19944;-92
2021/06/12 01:58:15;;;;;;;;;;;;;;;;;;4979858;28;19929;-92
2021/06/12 02:00:43;;;;;;;;;;;;;;;;;;4986150;28;19922;-92
2021/06/12 02:03:11;;;;;;;;;;;;;;;;;;4989028;28;19922;-92
2021/06/12 02:05:42;;;;;;;;;;;;;;;;;;4983060;28;19926;-92
2021/06/12 02:08:10;;;;;;;;;;;;;;;;;;5000507;28;20390;-93
2021/06/12 02:10:38;;;;;;;;;;;;;;;;;;4982139;28;19922;-92
2021/06/12 02:13:06;;;;;;;;;;;;;;;;;;4983168;28;19926;-92
2021/06/12 02:15:33;;;;;;;;;;;;;;;;;;4979752;28;19929;-92
2021/06/12 02:18:02;;;;;;;;;;;;;;;;;;4981369;28;20386;-91
2021/06/12 02:20:31;;;;;;;;;;;;;;;;;;4978540;28;19922;-92
2021/06/12 02:23:01;;;;;;;;;;;;;;;;;;4975049;28;19929;-92
2021/06/12 02:25:28;;;;;;;;;;;;;;;;;;4985442;28;19921;-93
2021/06/12 02:27:57;;;;;;;;;;;;;;;;;;4984399;28;19926;-92
2021/06/12 02:30:26;;;;;;;;;;;;;;;;;;4980458;28;19922;-92
2021/06/12 02:32:55;;;;;;;;;;;;;;;;;;4967573;28;19929;-92
2021/06/12 02:35:23;;;;;;;;;;;;;;;;;;4969782;28;19929;-94
2021/06/12 02:37:50;;;;;;;;;;;;;;;;;;4993846;28;19922;-91
2021/06/12 02:40:20;;;;;;;;;;;;;;;;;;4974854;28;20409;-91
2021/06/12 02:42:48;;;;;;;;;;;;;;;;;;4987473;28;19922;-92
2021/06/12 02:45:16;;;;;;;;;;;;;;;;;;4976625;28;19929;-92
2021/06/12 02:47:44;;;;;;;;;;;;;;;;;;4977599;28;19929;-92
2021/06/12 02:50:12;;;;;;;;;;;;;;;;;;4973623;28;20373;-91
2021/06/12 02:52:40;;;;;;;;;;;;;;;;;;4988706;28;19929;-91
2021/06/12 02:55:09;;;;;;;;;;;;;;;;;;4976846;28;19933;-93
2021/06/12 02:57:38;;;;;;;;;;;;;;;;;;4972927;28;19926;-92
2021/06/12 03:00:07;;;;;;;;;;;;;;;;;;4988600;28;19926;-91
2021/06/12 03:02:36;;;;;;;;;;;;;;;;;;4986511;28;19921;-92
2021/06/12 03:05:04;;;;;;;;;;;;;;;;;;4978817;28;19925;-92
2021/06/12 03:07:32;;;;;;;;;;;;;;;;;;4970739;28;19922;-92
2021/06/12 03:10:00;;;;;;;;;;;;;;;;;;4970736;28;19929;-91
2021/06/12 03:12:27;;;;;;;;;;;;;;;;;;4977418;28;19933;-91
2021/06/12 03:14:57;;;;;;;;;;;;;;;;;;4986831;28;20297;-91
2021/06/12 03:17:25;;;;;;;;;;;;;;;;;;4989840;28;19922;-92
2021/06/12 03:19:52;;;;;;;;;;;;;;;;;;4983795;28;19921;-94
2021/06/12 03:22:21;;;;;;;;;;;;;;;;;;4975973;28;19921;-90
2021/06/12 03:24:49;;;;;;;;;;;;;;;;;;4972387;28;19944;-87
2021/06/12 03:27:17;;;;;;;;;;;;;;;;;;4978237;28;19933;-92
2021/06/12 03:29:44;;;;;;;;;;;;;;;;;;4977777;28;19922;-93
2021/06/12 03:32:13;;;;;;;;;;;;;;;;;;4993376;28;19921;-92
2021/06/12 03:34:41;;;;;;;;;;;;;;;;;;4999228;28;19921;-91
2021/06/12 03:40:08;;;;;;;;;;;;;;;;;;4990495;28;19922;-95
2021/06/12 06:04:19;;;;;;;;;;;;;;;;;;4924223;29;19919;-88
2021/06/12 06:06:54;;;;;;;;;;;;;;;;;;4928802;29;19923;-88
2021/06/12 06:09:23;;;;;;;;;;;;;;;;;;4932115;29;20610;-88
2021/06/12 06:15:36;;;;;;;;;;;;;;;;;;4933537;29;19923;-88
2021/06/12 06:18:15;;;;;;;;;;;;;;;;;;4930455;29;20292;-87
2021/06/12 06:20:50;;;;;;;;;;;;;;;;;;4932270;29;19945;-87
2021/06/12 06:25:02;;;;;;;;;;;;;;;;;;4892471;29;19938;-87
2021/06/12 06:32:15;;;;;;;;;;;;;;;;;;4877411;29;19930;-86
2021/06/12 06:51:43;;;;;;;;;;;;;;;;;;4934107;28;19930;-86
2021/06/12 06:55:13;;;;;;;;;;;;;;;;;;4967120;28;19922;-85
2021/06/12 06:57:53;;;;;;;;;;;;;;;;;;4948737;28;20545;-85
2021/06/12 07:00:51;;;;;;;;;;;;;;;;;;4941449;28;19933;-86
2021/06/12 07:03:19;;;;;;;;;;;;;;;;;;4936582;28;19929;-85
2021/06/12 07:05:48;;;;;;;;;;;;;;;;;;4948512;28;20308;-86
2021/06/12 07:08:16;;;;;;;;;;;;;;;;;;4936353;28;20400;-86
2021/06/12 07:14:41;;;;;;;;;;;;;;;;;;4965532;28;20115;-85
2021/06/12 07:17:11;;;;;;;;;;;;;;;;;;4962350;28;20404;-85
2021/06/12 07:19:39;;;;;;;;;;;;;;;;;;4983849;28;20325;-84
2021/06/12 07:22:07;;;;;;;;;;;;;;;;;;4960663;28;19926;-85
2021/06/12 07:24:35;;;;;;;;;;;;;;;;;;4971983;28;19922;-85
2021/06/12 07:27:04;;;;;;;;;;;;;;;;;;4959727;28;19922;-85
2021/06/12 07:29:32;;;;;;;;;;;;;;;;;;4950791;28;19929;-84
2021/06/12 07:32:00;;;;;;;;;;;;;;;;;;4963285;28;20388;-85
2021/06/12 07:34:29;;;;;;;;;;;;;;;;;;4981629;28;19929;-83
2021/06/12 07:36:57;;;;;;;;;;;;;;;;;;4969804;28;19948;-84
2021/06/12 07:39:27;;;;;;;;;;;;;;;;;;4980010;28;19929;-84
2021/06/12 07:41:55;;;;;;;;;;;;;;;;;;4968453;28;19922;-84
2021/06/12 07:44:23;;;;;;;;;;;;;;;;;;4962498;28;20427;-83
2021/06/12 07:46:51;;;;;;;;;;;;;;;;;;4941804;28;19945;-84
2021/06/12 07:49:19;;;;;;;;;;;;;;;;;;4981308;28;19922;-83
2021/06/12 07:51:48;;;;;;;;;;;;;;;;;;4965538;28;19916;-84
2021/06/12 07:54:17;;;;;;;;;;;;;;;;;;4969908;28;19906;-83
2021/06/12 07:56:45;;;;;;;;;;;;;;;;;;5001169;28;19910;-84
2021/06/12 07:59:13;;;;;;;;;;;;;;;;;;4975655;28;19921;-84
2021/06/12 08:01:42;;;;;;;;;;;;;;;;;;4961570;28;19942;-84
2021/06/12 08:04:10;;;;;;;;;;;;;;;;;;4986579;28;19922;-85
2021/06/12 08:06:39;;;;;;;;;;;;;;;;;;4986996;28;19929;-84
2021/06/12 08:09:08;;;;;;;;;;;;;;;;;;4956650;28;20381;-84
2021/06/12 08:11:36;;;;;;;;;;;;;;;;;;4973366;28;19922;-85
2021/06/12 08:14:04;;;;;;;;;;;;;;;;;;4955887;28;19930;-85
2021/06/12 08:16:32;;;;;;;;;;;;;;;;;;4956611;28;19930;-84
2021/06/12 08:19:00;;;;;;;;;;;;;;;;;;4969858;28;19925;-84
2021/06/12 08:21:28;;;;;;;;;;;;;;;;;;4952599;28;19922;-84
2021/06/12 08:23:56;;;;;;;;;;;;;;;;;;4950545;28;19922;-85
2021/06/12 08:26:26;;;;;;;;;;;;;;;;;;4962457;28;19928;-85
2021/06/12 08:29:10;;;;;;;;;;;;;;;;;;4963435;28;19930;-84
2021/06/12 08:32:12;;;;;;;;;;;;;;;;;;4980512;28;19948;-83
2021/06/12 08:34:40;;;;;;;;;;;;;;;;;;4962266;28;19933;-83
2021/06/12 08:43:45;;;;;;;;;;;;;;;;;;4976585;28;19922;-83
2021/06/12 08:46:24;;;;;;;;;;;;;;;;;;4942383;28;19922;-84
2021/06/12 08:48:52;;;;;;;;;;;;;;;;;;4960515;28;19926;-84
2021/06/12 08:51:20;;;;;;;;;;;;;;;;;;4946022;28;19922;-84
2021/06/12 08:53:48;;;;;;;;;;;;;;;;;;4961415;28;20396;-84
2021/06/12 08:56:16;;;;;;;;;;;;;;;;;;4975645;28;19922;-83
2021/06/12 08:58:55;;;;;;;;;;;;;;;;;;4934330;28;20376;-85
2021/06/12 09:02:50;;;;;;;;;;;;;;;;;;5003309;28;19920;-84
2021/06/12 09:15:17;;;;;;;;;;;;;;;;;;5003335;28;19928;-85
2021/06/12 09:17:46;;;;;;;;;;;;;;;;;;4991307;28;19922;-85
2021/06/12 09:20:15;;;;;;;;;;;;;;;;;;4988625;28;19929;-85
2021/06/12 09:22:43;;;;;;;;;;;;;;;;;;4984991;28;20313;-84
2021/06/12 09:25:11;;;;;;;;;;;;;;;;;;4958033;28;19949;-85
2021/06/12 09:27:39;;;;;;;;;;;;;;;;;;4978580;28;19999;-85
2021/06/12 09:30:08;;;;;;;;;;;;;;;;;;4968077;28;19922;-85
2021/06/12 09:32:45;;;;;;;;;;;;;;;;;;4973897;28;20343;-85
2021/06/12 09:35:13;;;;;;;;;;;;;;;;;;4980676;28;19929;-85
2021/06/12 09:37:41;;;;;;;;;;;;;;;;;;4977677;28;19926;-85
2021/06/12 09:40:11;;;;;;;;;;;;;;;;;;4974274;28;19922;-84
2021/06/12 09:42:43;;;;;;;;;;;;;;;;;;4985684;28;19929;-85
2021/06/12 09:45:12;;;;;;;;;;;;;;;;;;4970156;28;19925;-84
2021/06/12 09:47:40;;;;;;;;;;;;;;;;;;4970534;28;19922;-84
2021/06/12 09:50:10;;;;;;;;;;;;;;;;;;4978074;28;20398;-84
2021/06/12 09:52:42;;;;;;;;;;;;;;;;;;4982239;28;19932;-84
2021/06/12 09:55:20;;;;;;;;;;;;;;;;;;4998715;28;19920;-85
2021/06/12 09:57:49;;;;;;;;;;;;;;;;;;4976662;28;19936;-84
2021/06/12 10:00:17;;;;;;;;;;;;;;;;;;4997154;28;19921;-85
2021/06/12 10:02:46;;;;;;;;;;;;;;;;;;4981393;28;19932;-84
2021/06/12 10:05:16;;;;;;;;;;;;;;;;;;4979519;28;19944;-84
2021/06/12 10:07:45;;;;;;;;;;;;;;;;;;4978779;28;19922;-85
2021/06/12 10:10:13;;;;;;;;;;;;;;;;;;4982304;28;20077;-84
2021/06/12 10:12:42;;;;;;;;;;;;;;;;;;4995240;28;19921;-85
2021/06/12 10:15:11;;;;;;;;;;;;;;;;;;4981541;28;19932;-85
2021/06/12 10:17:40;;;;;;;;;;;;;;;;;;4980107;28;19932;-85
2021/06/12 10:20:09;;;;;;;;;;;;;;;;;;5005333;28;19921;-84
2021/06/12 10:22:39;;;;;;;;;;;;;;;;;;4995823;28;20114;-84
2021/06/12 10:25:07;;;;;;;;;;;;;;;;;;4996352;28;20034;-84
2021/06/12 10:27:36;;;;;;;;;;;;;;;;;;4983315;28;20411;-84
2021/06/12 10:30:05;;;;;;;;;;;;;;;;;;4984107;28;19932;-86
2021/06/12 10:32:33;;;;;;;;;;;;;;;;;;4999850;28;19936;-85
2021/06/12 10:35:03;;;;;;;;;;;;;;;;;;4984464;28;19922;-86
2021/06/12 10:37:46;;;;;;;;;;;;;;;;;;4980431;28;19925;-85
2021/06/12 10:40:16;;;;;;;;;;;;;;;;;;5003471;28;20319;-87
2021/06/12 10:42:57;;;;;;;;;;;;;;;;;;4992439;28;19921;-86
2021/06/12 10:45:25;;;;;;;;;;;;;;;;;;5003505;28;20281;-87
2021/06/12 10:47:53;;;;;;;;;;;;;;;;;;4988263;28;19922;-88
2021/06/12 10:50:34;;;;;;;;;;;;;;;;;;4979848;28;19921;-86
2021/06/12 10:53:16;;;;;;;;;;;;;;;;;;4978433;28;19921;-87
2021/06/12 10:55:46;;;;;;;;;;;;;;;;;;5000613;28;19921;-86
2021/06/12 10:58:33;;;;;;;;;;;;;;;;;;4995816;28;19930;-86
2021/06/12 11:01:12;;;;;;;;;;;;;;;;;;4983345;28;19932;-87
2021/06/12 11:03:50;;;;;;;;;;;;;;;;;;4996269;28;19928;-88
2021/06/12 11:06:32;;;;;;;;;;;;;;;;;;4984203;28;20398;-87
2021/06/12 11:09:20;;;;;;;;;;;;;;;;;;4990889;28;19929;-88
2021/06/12 11:11:50;;;;;;;;;;;;;;;;;;4997666;28;20295;-87
2021/06/12 11:14:25;;;;;;;;;;;;;;;;;;4990063;28;19933;-86
2021/06/12 11:17:12;;;;;;;;;;;;;;;;;;4977803;28;19937;-88
2021/06/12 11:19:42;;;;;;;;;;;;;;;;;;4977345;28;19929;-86
2021/06/12 11:22:29;;;;;;;;;;;;;;;;;;4982135;28;19925;-86
2021/06/12 11:24:58;;;;;;;;;;;;;;;;;;4981960;28;19922;-86
2021/06/12 11:27:28;;;;;;;;;;;;;;;;;;4977406;28;19921;-86
2021/06/12 11:30:09;;;;;;;;;;;;;;;;;;4990094;28;19922;-87
2021/06/12 11:32:43;;;;;;;;;;;;;;;;;;4992928;28;19921;-87
2021/06/12 11:35:11;;;;;;;;;;;;;;;;;;4988990;28;19937;-87
2021/06/12 11:37:50;;;;;;;;;;;;;;;;;;4974360;28;19921;-87
2021/06/12 11:40:21;;;;;;;;;;;;;;;;;;4992228;28;19926;-86
2021/06/12 11:42:51;;;;;;;;;;;;;;;;;;4989711;28;19922;-87
2021/06/12 11:45:21;;;;;;;;;;;;;;;;;;4993437;28;19925;-86
2021/06/12 11:47:49;;;;;;;;;;;;;;;;;;4978984;28;19928;-87
2021/06/12 11:50:17;;;;;;;;;;;;;;;;;;4976189;28;19928;-87
2021/06/12 11:52:50;;;;;;;;;;;;;;;;;;4980558;28;19921;-87
2021/06/12 11:55:19;;;;;;;;;;;;;;;;;;4979253;28;19929;-87
2021/06/12 11:57:48;;;;;;;;;;;;;;;;;;4981617;28;19921;-89
2021/06/12 12:00:28;;;;;;;;;;;;;;;;;;4982500;28;19925;-87
2021/06/12 12:03:00;;;;;;;;;;;;;;;;;;4976995;28;19929;-88
2021/06/12 12:05:32;;;;;;;;;;;;;;;;;;4975108;28;20568;-88
2021/06/12 12:08:01;;;;;;;;;;;;;;;;;;4993149;28;19922;-87
2021/06/12 12:10:30;;;;;;;;;;;;;;;;;;4976941;28;19929;-88
2021/06/12 12:12:59;;;;;;;;;;;;;;;;;;4987504;28;93799;-87
2021/06/12 12:15:36;;;;;;;;;;;;;;;;;;4973080;28;19925;-88
2021/06/12 12:18:05;;;;;;;;;;;;;;;;;;4977258;28;20288;-87
2021/06/12 12:20:37;;;;;;;;;;;;;;;;;;4981518;28;19933;-87
2021/06/12 12:23:21;;;;;;;;;;;;;;;;;;4975518;28;19925;-87
2021/06/12 12:25:51;;;;;;;;;;;;;;;;;;4981406;28;19954;-87
2021/06/12 12:28:26;;;;;;;;;;;;;;;;;;4992758;28;19932;-89
2021/06/12 12:31:05;;;;;;;;;;;;;;;;;;5007445;28;20268;-86
2021/06/12 12:33:33;;;;;;;;;;;;;;;;;;4998674;28;19921;-88
2021/06/12 12:36:01;;;;;;;;;;;;;;;;;;4994161;28;20311;-87
2021/06/12 12:38:29;;;;;;;;;;;;;;;;;;4996684;28;20391;-87
2021/06/12 12:41:10;;;;;;;;;;;;;;;;;;5001232;28;19921;-89
2021/06/12 12:43:49;;;;;;;;;;;;;;;;;;5001155;28;19922;-88
2021/06/12 12:46:38;;;;;;;;;;;;;;;;;;4993324;28;19936;-89
2021/06/12 12:54:59;;;;;;;;;;;;;;;;;;5006291;28;19929;-87
2021/06/12 12:57:28;;;;;;;;;;;;;;;;;;4999786;28;19919;-90
2021/06/12 13:09:28;;;;;;;;;;;;;;;;;;5009423;28;19921;-90
2021/06/12 13:12:27;;;;;;;;;;;;;;;;;;4953851;28;19922;-90
2021/06/12 13:14:59;;;;;;;;;;;;;;;;;;4934767;28;20320;-90
2021/06/12 13:17:40;;;;;;;;;;;;;;;;;;4950733;28;19922;-91
2021/06/12 13:20:28;;;;;;;;;;;;;;;;;;4941178;28;19922;-90
2021/06/12 13:23:04;;;;;;;;;;;;;;;;;;4954213;28;19929;-90
2021/06/12 13:25:39;;;;;;;;;;;;;;;;;;4949148;28;19929;-89
2021/06/12 13:28:11;;;;;;;;;;;;;;;;;;4957424;28;19922;-86
2021/06/12 13:30:41;;;;;;;;;;;;;;;;;;4957221;28;20332;-86
2021/06/12 13:33:16;;;;;;;;;;;;;;;;;;4950989;28;19964;-87
2021/06/12 13:35:46;;;;;;;;;;;;;;;;;;4941257;28;20407;-86
2021/06/12 13:38:56;;;;;;;;;;;;;;;;;;4966868;28;19925;-87
2021/06/12 13:41:26;;;;;;;;;;;;;;;;;;4951014;28;19922;-86
2021/06/12 13:43:54;;;;;;;;;;;;;;;;;;4962736;28;19921;-86
2021/06/12 13:46:23;;;;;;;;;;;;;;;;;;4960155;28;19922;-86
2021/06/12 13:48:52;;;;;;;;;;;;;;;;;;4944588;28;20419;-86
2021/06/12 13:51:20;;;;;;;;;;;;;;;;;;4964513;28;20466;-86
2021/06/12 13:53:55;;;;;;;;;;;;;;;;;;4960711;28;19945;-86
2021/06/12 13:56:29;;;;;;;;;;;;;;;;;;4976199;28;19922;-85
2021/06/12 13:58:57;;;;;;;;;;;;;;;;;;4957449;28;20308;-86
2021/06/12 14:01:26;;;;;;;;;;;;;;;;;;4963780;28;19929;-85
2021/06/12 14:03:54;;;;;;;;;;;;;;;;;;4973519;28;19922;-86
2021/06/12 14:06:22;;;;;;;;;;;;;;;;;;4976182;28;20434;-86
2021/06/12 14:08:54;;;;;;;;;;;;;;;;;;4966453;28;19937;-87
2021/06/12 14:11:25;;;;;;;;;;;;;;;;;;4945442;28;19926;-86
2021/06/12 14:13:58;;;;;;;;;;;;;;;;;;4948439;28;19929;-86
2021/06/12 14:16:29;;;;;;;;;;;;;;;;;;4946869;28;19926;-86
2021/06/12 14:18:59;;;;;;;;;;;;;;;;;;4978483;28;19994;-86
2021/06/12 14:21:28;;;;;;;;;;;;;;;;;;4962016;28;19925;-86
2021/06/12 14:23:56;;;;;;;;;;;;;;;;;;4968504;28;19937;-85
2021/06/12 14:26:27;;;;;;;;;;;;;;;;;;4951076;28;19922;-84
2021/06/12 14:28:57;;;;;;;;;;;;;;;;;;4956074;28;19929;-86
2021/06/12 14:31:25;;;;;;;;;;;;;;;;;;4958109;28;19926;-86
2021/06/12 14:33:59;;;;;;;;;;;;;;;;;;4980021;28;20051;-87
2021/06/12 14:36:32;;;;;;;;;;;;;;;;;;4959909;28;19933;-85
2021/06/12 14:39:01;;;;;;;;;;;;;;;;;;4964241;28;19922;-86
2021/06/12 14:41:32;;;;;;;;;;;;;;;;;;4977630;28;19936;-85
2021/06/12 14:44:05;;;;;;;;;;;;;;;;;;4941583;28;19940;-86
2021/06/12 14:46:33;;;;;;;;;;;;;;;;;;4950985;28;19926;-86
2021/06/12 14:49:01;;;;;;;;;;;;;;;;;;4959154;28;19926;-86
2021/06/12 14:51:29;;;;;;;;;;;;;;;;;;4957395;28;19944;-85
2021/06/12 14:53:57;;;;;;;;;;;;;;;;;;4952433;28;19937;-86
2021/06/12 14:56:25;;;;;;;;;;;;;;;;;;4941056;28;20590;-85
2021/06/12 14:58:53;;;;;;;;;;;;;;;;;;4959697;28;19922;-85
2021/06/12 15:01:23;;;;;;;;;;;;;;;;;;4973229;28;19922;-86
2021/06/12 15:03:51;;;;;;;;;;;;;;;;;;4958732;28;19926;-86
2021/06/12 15:06:19;;;;;;;;;;;;;;;;;;4960955;28;21219;-85
2021/06/12 15:08:48;;;;;;;;;;;;;;;;;;4971424;28;19933;-85
2021/06/12 15:11:15;;;;;;;;;;;;;;;;;;4955604;28;19925;-85
2021/06/12 15:13:43;;;;;;;;;;;;;;;;;;4953238;28;20468;-85
2021/06/12 15:16:11;;;;;;;;;;;;;;;;;;4943866;28;19930;-85
2021/06/12 15:18:41;;;;;;;;;;;;;;;;;;4948078;28;19933;-85
2021/06/12 15:21:19;;;;;;;;;;;;;;;;;;4934380;28;20295;-85
2021/06/12 15:23:49;;;;;;;;;;;;;;;;;;4938150;28;19925;-84
2021/06/12 15:26:42;;;;;;;;;;;;;;;;;;4941002;28;19922;-87
2021/06/12 15:29:26;;;;;;;;;;;;;;;;;;4949962;28;19925;-85
2021/06/12 15:32:00;;;;;;;;;;;;;;;;;;4965361;28;19920;-84
2021/06/12 15:34:31;;;;;;;;;;;;;;;;;;4975129;28;19926;-84
2021/06/12 15:37:05;;;;;;;;;;;;;;;;;;4956683;28;19913;-84
2021/06/12 15:39:34;;;;;;;;;;;;;;;;;;4977415;28;19921;-85
2021/06/12 15:42:02;;;;;;;;;;;;;;;;;;4976187;28;19928;-85
2021/06/12 15:44:30;;;;;;;;;;;;;;;;;;4937040;28;19933;-85
2021/06/12 15:46:58;;;;;;;;;;;;;;;;;;4960618;28;20311;-84
2021/06/12 15:49:26;;;;;;;;;;;;;;;;;;4934546;28;19922;-85
2021/06/12 15:51:55;;;;;;;;;;;;;;;;;;4950807;28;19927;-85
2021/06/12 15:54:23;;;;;;;;;;;;;;;;;;4956642;28;19928;-86
2021/06/12 15:56:51;;;;;;;;;;;;;;;;;;4952076;28;19926;-85
2021/06/12 15:59:19;;;;;;;;;;;;;;;;;;4943274;28;19930;-85
2021/06/12 16:01:47;;;;;;;;;;;;;;;;;;4931588;28;20325;-86
2021/06/12 16:04:15;;;;;;;;;;;;;;;;;;4932431;28;20409;-85
2021/06/12 16:07:04;;;;;;;;;;;;;;;;;;4947632;28;19922;-86
2021/06/12 16:09:47;;;;;;;;;;;;;;;;;;4961688;28;19929;-86
2021/06/12 16:12:16;;;;;;;;;;;;;;;;;;4970410;28;19922;-86
2021/06/12 16:14:48;;;;;;;;;;;;;;;;;;4976973;28;19922;-86
2021/06/12 16:17:47;;;;;;;;;;;;;;;;;;4949057;28;19945;-87
2021/06/12 16:23:45;;;;;;;;;;;;;;;;;;4958725;28;19922;-87
2021/06/12 16:26:41;;;;;;;;;;;;;;;;;;4946594;28;19932;-87
2021/06/12 16:29:35;;;;;;;;;;;;;;;;;;4944056;28;20308;-87
2021/06/12 16:39:44;;;;;;;;;;;;;;;;;;4968425;28;19937;-86
2021/06/12 16:42:18;;;;;;;;;;;;;;;;;;4947466;28;19929;-86
2021/06/12 16:45:30;;;;;;;;;;;;;;;;;;4946840;28;19922;-87
2021/06/12 16:48:03;;;;;;;;;;;;;;;;;;4946620;28;19929;-87
2021/06/12 16:50:43;;;;;;;;;;;;;;;;;;4948488;28;19922;-87
2021/06/12 16:53:27;;;;;;;;;;;;;;;;;;4961737;28;19922;-86
2021/06/12 16:56:31;;;;;;;;;;;;;;;;;;4960950;28;20404;-88
2021/06/12 16:59:03;;;;;;;;;;;;;;;;;;4959225;28;19925;-87
2021/06/12 17:01:34;;;;;;;;;;;;;;;;;;4961458;28;19933;-86
2021/06/12 17:04:31;;;;;;;;;;;;;;;;;;4958881;28;20324;-86
2021/06/12 17:06:59;;;;;;;;;;;;;;;;;;4943128;28;19926;-86
2021/06/12 17:09:27;;;;;;;;;;;;;;;;;;4941081;28;19948;-85
2021/06/12 17:11:56;;;;;;;;;;;;;;;;;;4964486;28;19929;-86
2021/06/12 17:14:25;;;;;;;;;;;;;;;;;;4947793;28;19922;-86
2021/06/12 17:16:55;;;;;;;;;;;;;;;;;;4947171;28;19922;-86
2021/06/12 17:19:25;;;;;;;;;;;;;;;;;;4942686;29;19922;-86
2021/06/12 17:21:54;;;;;;;;;;;;;;;;;;4961754;28;19929;-86
2021/06/12 17:24:27;;;;;;;;;;;;;;;;;;4949458;28;19925;-85
2021/06/12 17:27:25;;;;;;;;;;;;;;;;;;4947381;28;20419;-85
2021/06/12 17:29:53;;;;;;;;;;;;;;;;;;4959358;28;19945;-86
2021/06/12 17:32:27;;;;;;;;;;;;;;;;;;4938054;28;19926;-86
2021/06/12 17:34:59;;;;;;;;;;;;;;;;;;4945257;28;19938;-86
2021/06/12 17:37:35;;;;;;;;;;;;;;;;;;4970872;28;20015;-86
2021/06/12 17:40:05;;;;;;;;;;;;;;;;;;4962419;28;19929;-86
2021/06/12 17:43:09;;;;;;;;;;;;;;;;;;4958124;28;19932;-85
2021/06/12 17:46:21;;;;;;;;;;;;;;;;;;4957685;28;19930;-86
2021/06/12 17:48:52;;;;;;;;;;;;;;;;;;4953763;28;19926;-86
2021/06/12 17:51:23;;;;;;;;;;;;;;;;;;4957571;28;19911;-86
2021/06/12 17:53:54;;;;;;;;;;;;;;;;;;4982760;28;19910;-86
2021/06/12 17:59:45;;;;;;;;;;;;;;;;;;4980864;28;19933;-86
2021/06/12 18:03:14;;;;;;;;;;;;;;;;;;4955216;28;19922;-87
2021/06/12 18:06:24;;;;;;;;;;;;;;;;;;4942668;29;19923;-86
2021/06/12 18:10:26;;;;;;;;;;;;;;;;;;4853956;29;20422;-86
2021/06/12 18:12:59;;;;;;;;;;;;;;;;;;4915749;29;19927;-84
2021/06/12 18:15:37;;;;;;;;;;;;;;;;;;4901275;29;19930;-87
2021/06/12 18:18:39;;;;;;;;;;;;;;;;;;4908766;29;19922;-87
2021/06/12 18:24:51;;;;;;;;;;;;;;;;;;4898212;29;19927;-86
2021/06/12 18:27:23;;;;;;;;;;;;;;;;;;4938972;28;19929;-86
2021/06/12 18:29:51;;;;;;;;;;;;;;;;;;4959207;28;19929;-86
2021/06/12 18:32:20;;;;;;;;;;;;;;;;;;4956341;28;19922;-86
2021/06/12 18:34:51;;;;;;;;;;;;;;;;;;4957925;28;19921;-85
2021/06/12 18:37:19;;;;;;;;;;;;;;;;;;4960313;28;19928;-86
2021/06/12 18:39:47;;;;;;;;;;;;;;;;;;4977847;28;19921;-84
2021/06/12 18:42:15;;;;;;;;;;;;;;;;;;4958666;28;19923;-86
2021/06/12 18:44:45;;;;;;;;;;;;;;;;;;4954690;28;19933;-85
2021/06/12 18:47:13;;;;;;;;;;;;;;;;;;4955840;28;20368;-85
2021/06/12 18:49:41;;;;;;;;;;;;;;;;;;4952987;28;19922;-83
2021/06/12 18:52:09;;;;;;;;;;;;;;;;;;4965433;28;19942;-84
2021/06/12 18:54:37;;;;;;;;;;;;;;;;;;4952306;28;20320;-85
2021/06/12 18:57:05;;;;;;;;;;;;;;;;;;4957096;28;19953;-85
2021/06/12 18:59:33;;;;;;;;;;;;;;;;;;4946884;28;19933;-85
2021/06/12 19:02:03;;;;;;;;;;;;;;;;;;4941471;28;19922;-85
2021/06/12 19:04:31;;;;;;;;;;;;;;;;;;4963385;28;19930;-85
2021/06/12 19:06:59;;;;;;;;;;;;;;;;;;4970064;28;19932;-84
2021/06/12 19:09:27;;;;;;;;;;;;;;;;;;4983975;28;20391;-85
2021/06/12 19:11:55;;;;;;;;;;;;;;;;;;4970711;28;19922;-85
2021/06/12 19:14:23;;;;;;;;;;;;;;;;;;4969587;28;19922;-84
2021/06/12 19:16:52;;;;;;;;;;;;;;;;;;4985912;28;19949;-83
2021/06/12 19:19:23;;;;;;;;;;;;;;;;;;4958162;28;19923;-83
2021/06/12 19:25:11;;;;;;;;;;;;;;;;;;4942787;28;19930;-84
2021/06/12 19:27:39;;;;;;;;;;;;;;;;;;4977311;28;19922;-84
2021/06/12 19:30:08;;;;;;;;;;;;;;;;;;4977271;28;19930;-84
2021/06/12 19:32:35;;;;;;;;;;;;;;;;;;4966944;28;19928;-84
2021/06/12 19:35:12;;;;;;;;;;;;;;;;;;4964021;28;19922;-84
2021/06/12 19:37:42;;;;;;;;;;;;;;;;;;4960561;28;19945;-84
2021/06/12 19:40:11;;;;;;;;;;;;;;;;;;4951594;28;20315;-84
2021/06/12 19:42:40;;;;;;;;;;;;;;;;;;4961420;28;20277;-85
2021/06/12 19:45:08;;;;;;;;;;;;;;;;;;4941890;28;19922;-85
2021/06/12 19:47:36;;;;;;;;;;;;;;;;;;4946302;28;19945;-83
2021/06/12 19:50:10;;;;;;;;;;;;;;;;;;4980396;28;19929;-84
2021/06/12 19:52:38;;;;;;;;;;;;;;;;;;4959122;28;19936;-84
2021/06/12 19:55:07;;;;;;;;;;;;;;;;;;4976396;28;19922;-84
2021/06/12 19:57:35;;;;;;;;;;;;;;;;;;4953346;28;19925;-84
2021/06/12 20:00:05;;;;;;;;;;;;;;;;;;4950624;28;19922;-85
2021/06/12 20:02:40;;;;;;;;;;;;;;;;;;4973933;28;20467;-85
2021/06/12 20:05:11;;;;;;;;;;;;;;;;;;4944972;28;19921;-86
2021/06/12 20:07:42;;;;;;;;;;;;;;;;;;4941763;28;19922;-87
2021/06/12 20:10:12;;;;;;;;;;;;;;;;;;4947997;28;20031;-85
2021/06/12 20:12:40;;;;;;;;;;;;;;;;;;4945888;28;19929;-88
2021/06/12 20:15:09;;;;;;;;;;;;;;;;;;4947080;28;19922;-86
2021/06/12 20:17:37;;;;;;;;;;;;;;;;;;4946417;28;19929;-87
2021/06/12 20:20:06;;;;;;;;;;;;;;;;;;4956540;28;20024;-84
2021/06/12 20:22:36;;;;;;;;;;;;;;;;;;4962090;28;19926;-85
2021/06/12 20:25:05;;;;;;;;;;;;;;;;;;4946733;28;19930;-85
2021/06/12 20:27:33;;;;;;;;;;;;;;;;;;4954163;28;19930;-86
2021/06/12 20:30:02;;;;;;;;;;;;;;;;;;4954743;28;19932;-87
2021/06/12 20:32:33;;;;;;;;;;;;;;;;;;4975941;28;19922;-87
2021/06/12 20:35:04;;;;;;;;;;;;;;;;;;4964282;28;19906;-86
2021/06/12 20:37:33;;;;;;;;;;;;;;;;;;4978665;28;19918;-85
2021/06/12 20:40:05;;;;;;;;;;;;;;;;;;4958088;29;20328;-87
2021/06/12 20:42:35;;;;;;;;;;;;;;;;;;4956455;28;19936;-87
2021/06/12 20:45:27;;;;;;;;;;;;;;;;;;;;;
2021/06/12 20:48:08;;;;;;;;;;;;;;;;;;4951669;28;19922;-85
2021/06/12 20:50:36;;;;;;;;;;;;;;;;;;4947927;28;19925;-86
2021/06/12 20:53:04;;;;;;;;;;;;;;;;;;4946526;28;20396;-87
2021/06/12 20:55:34;;;;;;;;;;;;;;;;;;4948230;28;19922;-87
2021/06/12 20:58:02;;;;;;;;;;;;;;;;;;4949805;28;20383;-86
2021/06/12 21:00:30;;;;;;;;;;;;;;;;;;4961616;28;19929;-85
2021/06/12 21:02:58;;;;;;;;;;;;;;;;;;4943471;28;20319;-87
2021/06/12 21:05:28;;;;;;;;;;;;;;;;;;4958532;28;20296;-87
2021/06/12 21:07:56;;;;;;;;;;;;;;;;;;4960205;28;19922;-86
2021/06/12 21:10:24;;;;;;;;;;;;;;;;;;4945675;28;19922;-86